Time;durP1;ratioP1;P1;durP2;ratioP2;P2;SDS_P1;SDS_P2;PMS_P1;PMS_P2;Temp;Humidity;BMP_temperature;BMP_pressure;BME280_temperature;BME280_humidity;BME280_pressure;Samples;Min_cycle;Max_cycle;Signal;HPM_P1;HPM_P2
2023/01/23 00:01:02;;;;;;;23.33;13.40;;;0.90;99.90;;;;;;5016859;28;20523;-66
2023/01/23 00:03:29;;;;;;;19.77;11.37;;;0.90;99.90;;;;;;5015054;28;20451;-67
2023/01/23 00:05:57;;;;;;;20.63;11.47;;;0.90;99.90;;;;;;5018714;28;20470;-67
2023/01/23 00:08:23;;;;;;;21.53;12.00;;;0.90;99.90;;;;;;5015263;28;20493;-67
2023/01/23 00:10:50;;;;;;;19.43;10.93;;;1.00;99.90;;;;;;5013402;28;20876;-67
2023/01/23 00:13:19;;;;;;;17.30;9.43;;;0.90;99.90;;;;;;5014123;28;20516;-67
2023/01/23 00:15:46;;;;;;;18.50;10.70;;;0.90;99.90;;;;;;5013852;28;20482;-66
2023/01/23 00:18:12;;;;;;;19.77;10.80;;;0.90;99.90;;;;;;5013571;28;20493;-67
2023/01/23 00:20:40;;;;;;;18.67;10.47;;;1.00;99.90;;;;;;5013981;28;20877;-67
2023/01/23 00:23:07;;;;;;;18.10;10.20;;;0.90;99.90;;;;;;5017899;28;20463;-67
2023/01/23 00:25:34;;;;;;;17.57;10.13;;;1.00;99.90;;;;;;5013376;28;20943;-67
2023/01/23 00:28:01;;;;;;;19.73;10.00;;;0.90;99.90;;;;;;5013656;28;20540;-67
2023/01/23 00:30:29;;;;;;;20.70;11.37;;;0.90;99.90;;;;;;5013462;28;20455;-67
2023/01/23 00:32:56;;;;;;;19.20;10.97;;;0.80;99.90;;;;;;5029096;28;20446;-66
2023/01/23 00:35:22;;;;;;;20.67;11.83;;;0.80;99.90;;;;;;5022839;28;20949;-67
2023/01/23 00:37:49;;;;;;;21.43;11.03;;;0.90;99.90;;;;;;5015851;28;20455;-67
2023/01/23 00:40:16;;;;;;;24.30;11.30;;;0.80;99.90;;;;;;5020298;28;20459;-67
2023/01/23 00:42:42;;;;;;;23.97;11.70;;;0.90;99.90;;;;;;5013184;28;20536;-67
2023/01/23 00:45:10;;;;;;;21.03;11.00;;;0.80;99.90;;;;;;5012471;28;20935;-67
2023/01/23 00:47:38;;;;;;;20.03;11.87;;;0.80;99.90;;;;;;5020845;28;20543;-67
2023/01/23 00:50:05;;;;;;;21.47;11.77;;;0.80;99.90;;;;;;5019246;28;20490;-67
2023/01/23 00:52:31;;;;;;;24.10;12.43;;;0.80;99.90;;;;;;5012775;28;20478;-66
2023/01/23 00:54:58;;;;;;;22.83;12.37;;;0.80;99.90;;;;;;5016414;28;20597;-66
2023/01/23 00:57:25;;;;;;;21.37;11.63;;;0.70;99.90;;;;;;5012763;28;20451;-67
2023/01/23 00:59:51;;;;;;;25.73;12.10;;;0.70;99.90;;;;;;5013163;28;20530;-67
2023/01/23 01:02:18;;;;;;;20.43;11.37;;;0.70;99.90;;;;;;5012537;28;20478;-66
2023/01/23 01:04:46;;;;;;;22.80;11.97;;;0.70;99.90;;;;;;5015188;28;20954;-67
2023/01/23 01:07:12;;;;;;;26.57;12.70;;;0.70;99.90;;;;;;5012931;28;20446;-66
2023/01/23 01:09:39;;;;;;;22.03;11.83;;;0.70;99.90;;;;;;5011834;28;20947;-67
2023/01/23 01:12:06;;;;;;;18.70;11.10;;;0.70;99.90;;;;;;5013208;28;20524;-67
2023/01/23 01:14:33;;;;;;;22.53;11.37;;;0.70;99.90;;;;;;5012395;28;20931;-66
2023/01/23 01:16:59;;;;;;;23.17;11.93;;;0.70;99.90;;;;;;5018676;28;20454;-67
2023/01/23 01:19:27;;;;;;;23.60;11.70;;;0.70;99.90;;;;;;5014184;28;20462;-67
2023/01/23 01:21:55;;;;;;;22.33;11.80;;;0.70;99.90;;;;;;5017155;28;20490;-66
2023/01/23 01:24:21;;;;;;;23.13;11.63;;;0.70;99.90;;;;;;5012384;28;20501;-67
2023/01/23 01:26:48;;;;;;;21.87;12.10;;;0.70;99.90;;;;;;5012483;28;20458;-67
2023/01/23 01:29:14;;;;;;;25.50;12.10;;;0.60;99.90;;;;;;5013518;28;20536;-67
2023/01/23 01:31:41;;;;;;;23.73;11.53;;;0.70;99.90;;;;;;5017042;28;20962;-67
2023/01/23 01:34:07;;;;;;;21.97;12.50;;;0.70;99.90;;;;;;5021660;28;20451;-67
2023/01/23 01:36:34;;;;;;;22.07;11.10;;;0.60;99.90;;;;;;5020510;28;20869;-67
2023/01/23 01:39:02;;;;;;;24.30;12.30;;;0.70;99.90;;;;;;5013543;28;20859;-67
2023/01/23 01:41:29;;;;;;;22.00;12.70;;;0.70;99.90;;;;;;5012048;28;20471;-66
2023/01/23 01:43:58;;;;;;;23.17;11.93;;;0.70;99.90;;;;;;5011678;28;20466;-67
2023/01/23 01:46:27;;;;;;;26.50;12.57;;;0.70;99.90;;;;;;5012057;28;20463;-67
2023/01/23 01:49:10;;;;;;;20.00;10.60;;;0.70;99.90;;;;;;5019736;28;20482;-66
2023/01/23 01:51:42;;;;;;;23.57;12.00;;;0.70;99.90;;;;;;5011822;28;20474;-66
2023/01/23 01:54:16;;;;;;;25.30;12.43;;;0.70;99.90;;;;;;5011787;28;20505;-67
2023/01/23 01:56:47;;;;;;;22.27;11.77;;;0.70;99.90;;;;;;5011959;28;20938;-66
2023/01/23 01:59:16;;;;;;;25.77;13.30;;;0.70;99.90;;;;;;5015620;28;20492;-67
2023/01/23 02:01:46;;;;;;;21.20;11.33;;;0.70;99.90;;;;;;5020044;28;20520;-67
2023/01/23 02:04:14;;;;;;;20.50;11.20;;;0.70;99.90;;;;;;5016844;28;20450;-67
2023/01/23 02:06:41;;;;;;;19.10;10.67;;;0.70;99.90;;;;;;5011309;28;20450;-67
2023/01/23 02:09:14;;;;;;;16.87;9.67;;;0.80;99.90;;;;;;5011585;28;20490;-67
2023/01/23 02:11:42;;;;;;;23.00;10.53;;;0.70;99.90;;;;;;5011708;28;20873;-67
2023/01/23 02:14:09;;;;;;;18.17;10.40;;;0.70;99.90;;;;;;5011583;28;20490;-67
2023/01/23 02:16:39;;;;;;;24.57;12.27;;;0.80;99.90;;;;;;5018228;28;20454;-67
2023/01/23 02:19:19;;;;;;;20.60;10.80;;;0.70;99.90;;;;;;5015983;28;20494;-67
2023/01/23 02:21:49;;;;;;;21.00;11.07;;;0.70;99.90;;;;;;5011446;28;20982;-67
2023/01/23 02:24:28;;;;;;;21.73;11.23;;;0.80;99.90;;;;;;5018494;28;20672;-67
2023/01/23 02:26:56;;;;;;;20.10;11.70;;;0.80;99.90;;;;;;5011504;28;20810;-67
2023/01/23 02:29:24;;;;;;;20.57;10.93;;;0.70;99.90;;;;;;5010922;28;20494;-67
2023/01/23 02:31:52;;;;;;;20.30;11.37;;;0.70;99.90;;;;;;5017061;28;20475;-66
2023/01/23 02:34:21;;;;;;;21.33;11.57;;;0.70;99.90;;;;;;5022572;28;20528;-67
2023/01/23 02:36:48;;;;;;;24.13;11.50;;;0.80;99.90;;;;;;5019193;28;20454;-66
2023/01/23 02:39:16;;;;;;;19.83;10.97;;;0.70;99.90;;;;;;5012833;28;20447;-67
2023/01/23 02:41:45;;;;;;;17.97;10.70;;;0.70;99.90;;;;;;5011082;28;20466;-66
2023/01/23 02:44:17;;;;;;;20.03;11.33;;;0.70;99.90;;;;;;5010565;28;20446;-67
2023/01/23 02:46:44;;;;;;;21.90;11.20;;;0.80;99.90;;;;;;5011235;28;20446;-67
2023/01/23 02:49:11;;;;;;;21.03;10.80;;;0.70;99.90;;;;;;5015205;28;20898;-67
2023/01/23 02:51:37;;;;;;;21.17;11.70;;;0.70;99.90;;;;;;5010909;28;21018;-67
2023/01/23 02:54:04;;;;;;;19.53;11.00;;;0.80;99.90;;;;;;5016817;28;20445;-67
2023/01/23 02:56:32;;;;;;;22.33;11.47;;;0.70;99.90;;;;;;5013053;28;20462;-67
2023/01/23 03:01:44;;;;;;;18.93;10.13;;;0.80;99.90;;;;;;5011281;28;20844;-66
2023/01/23 03:04:11;;;;;;;18.70;10.20;;;0.80;99.90;;;;;;5017258;28;20450;-67
2023/01/23 03:06:38;;;;;;;15.10;9.33;;;0.70;99.90;;;;;;5010591;28;20931;-67
2023/01/23 03:09:07;;;;;;;17.83;9.97;;;0.70;99.90;;;;;;5010945;28;20490;-67
2023/01/23 03:11:35;;;;;;;20.00;11.07;;;0.70;99.90;;;;;;5010941;28;20489;-66
2023/01/23 03:14:02;;;;;;;17.63;10.57;;;0.70;99.90;;;;;;5011071;28;20473;-67
2023/01/23 03:16:29;;;;;;;17.20;9.70;;;0.70;99.90;;;;;;5012258;28;20946;-67
2023/01/23 03:19:00;;;;;;;16.57;9.67;;;0.70;99.90;;;;;;5014143;28;20467;-67
2023/01/23 03:21:27;;;;;;;16.30;10.00;;;0.70;99.90;;;;;;5010821;28;20486;-67
2023/01/23 03:23:53;;;;;;;16.50;9.63;;;0.70;99.90;;;;;;5010946;28;20524;-67
2023/01/23 03:26:20;;;;;;;16.20;9.13;;;0.70;99.90;;;;;;5011091;28;20447;-67
2023/01/23 03:31:30;;;;;;;14.60;8.97;;;0.70;99.90;;;;;;5016268;28;20573;-67
2023/01/23 03:33:58;;;;;;;14.93;9.17;;;0.70;99.90;;;;;;5023215;28;20458;-67
2023/01/23 03:36:25;;;;;;;17.53;9.33;;;0.70;99.90;;;;;;5014439;28;20978;-67
2023/01/23 03:41:38;;;;;;;13.77;8.60;;;0.80;99.90;;;;;;5017236;28;20511;-67
2023/01/23 03:44:04;;;;;;;15.03;9.50;;;0.80;99.90;;;;;;5013767;28;20458;-67
2023/01/23 03:46:31;;;;;;;14.73;9.00;;;0.70;99.90;;;;;;5014410;28;20442;-66
2023/01/23 03:48:59;;;;;;;15.33;9.60;;;0.70;99.90;;;;;;5019238;28;20524;-67
2023/01/23 03:51:26;;;;;;;18.00;10.87;;;0.70;99.90;;;;;;5017040;28;20474;-67
2023/01/23 03:53:52;;;;;;;15.77;8.93;;;0.60;99.90;;;;;;5014237;28;20855;-67
2023/01/23 03:56:19;;;;;;;15.40;9.20;;;0.60;99.90;;;;;;5019169;28;20885;-67
2023/01/23 03:58:45;;;;;;;17.00;9.23;;;0.50;99.90;;;;;;5013959;28;20497;-66
2023/01/23 04:01:13;;;;;;;16.40;9.20;;;0.50;99.90;;;;;;5014177;28;20458;-67
2023/01/23 04:03:39;;;;;;;15.20;8.60;;;0.50;99.90;;;;;;5014013;28;20512;-67
2023/01/23 04:06:07;;;;;;;14.63;8.50;;;0.50;99.90;;;;;;5018860;28;20946;-67
2023/01/23 04:08:34;;;;;;;15.20;8.97;;;0.40;99.90;;;;;;5013439;28;20868;-66
2023/01/23 04:11:03;;;;;;;17.60;10.37;;;0.50;99.90;;;;;;5013623;28;20494;-67
2023/01/23 04:13:29;;;;;;;14.90;9.10;;;0.50;99.90;;;;;;5013921;28;20829;-66
2023/01/23 04:15:56;;;;;;;16.60;9.50;;;0.50;99.90;;;;;;5013898;28;20451;-67
2023/01/23 04:18:23;;;;;;;14.47;8.63;;;0.50;99.90;;;;;;5013795;28;20521;-67
2023/01/23 04:20:49;;;;;;;15.40;8.77;;;0.50;99.90;;;;;;5020270;28;20470;-67
2023/01/23 04:23:17;;;;;;;12.93;8.20;;;0.60;99.90;;;;;;5013684;28;20451;-67
2023/01/23 04:25:44;;;;;;;14.20;9.30;;;0.60;99.90;;;;;;5013634;28;20446;-67
2023/01/23 04:28:11;;;;;;;10.70;7.20;;;0.60;99.90;;;;;;5013619;28;20450;-67
2023/01/23 04:30:38;;;;;;;11.80;7.47;;;0.60;99.90;;;;;;5020879;28;20539;-67
2023/01/23 04:33:04;;;;;;;13.77;8.43;;;0.60;99.90;;;;;;5018389;28;20454;-67
2023/01/23 04:35:31;;;;;;;12.63;8.60;;;0.70;99.90;;;;;;5013302;28;20520;-67
2023/01/23 04:37:58;;;;;;;11.97;7.33;;;0.60;99.90;;;;;;5015634;28;20926;-67
2023/01/23 04:40:26;;;;;;;15.20;9.50;;;0.70;99.90;;;;;;5013501;28;20788;-67
2023/01/23 04:42:53;;;;;;;10.73;7.23;;;0.70;99.90;;;;;;5013597;28;20454;-67
2023/01/23 04:45:20;;;;;;;12.97;8.47;;;0.70;99.90;;;;;;5013120;28;20497;-67
2023/01/23 04:47:46;;;;;;;12.70;8.40;;;0.70;99.90;;;;;;5015639;28;20512;-67
2023/01/23 04:50:13;;;;;;;15.63;8.20;;;0.70;99.90;;;;;;5024600;28;20547;-67
2023/01/23 04:52:40;;;;;;;14.23;8.87;;;0.70;99.90;;;;;;5014773;28;20475;-67
2023/01/23 04:55:07;;;;;;;13.57;8.17;;;0.70;99.90;;;;;;5013099;28;20996;-67
2023/01/23 04:57:35;;;;;;;14.30;8.50;;;0.70;99.90;;;;;;5012860;28;20513;-67
2023/01/23 05:00:02;;;;;;;12.57;8.50;;;0.60;99.90;;;;;;5016337;28;20446;-66
2023/01/23 05:02:28;;;;;;;13.90;7.93;;;0.60;99.90;;;;;;5015733;28;20966;-67
2023/01/23 05:04:55;;;;;;;13.40;8.73;;;0.60;99.90;;;;;;5013080;28;20601;-67
2023/01/23 05:07:22;;;;;;;12.90;8.10;;;0.60;99.90;;;;;;5017129;28;20450;-67
2023/01/23 05:09:48;;;;;;;14.70;9.20;;;0.60;99.90;;;;;;5012552;28;21028;-67
2023/01/23 05:12:15;;;;;;;13.77;8.93;;;0.60;99.90;;;;;;5019671;28;20512;-67
2023/01/23 05:14:43;;;;;;;13.70;7.83;;;0.60;99.90;;;;;;5013861;28;20887;-67
2023/01/23 05:17:09;;;;;;;10.37;6.90;;;0.60;99.90;;;;;;5014577;28;20513;-67
2023/01/23 05:19:36;;;;;;;15.87;8.03;;;0.60;99.90;;;;;;5012204;28;20455;-67
2023/01/23 05:22:03;;;;;;;15.83;8.50;;;0.60;99.90;;;;;;5012944;28;20467;-67
2023/01/23 05:24:29;;;;;;;13.10;8.33;;;0.60;99.90;;;;;;5020647;28;20453;-67
2023/01/23 05:26:57;;;;;;;13.23;8.27;;;0.60;99.90;;;;;;5020740;28;20451;-67
2023/01/23 05:29:23;;;;;;;13.27;8.70;;;0.60;99.90;;;;;;5012208;28;20501;-67
2023/01/23 05:31:51;;;;;;;12.50;8.07;;;0.60;99.90;;;;;;5022645;28;20537;-67
2023/01/23 05:34:18;;;;;;;14.93;8.00;;;0.50;99.90;;;;;;5021652;28;20871;-67
2023/01/23 05:36:44;;;;;;;11.57;7.80;;;0.50;99.90;;;;;;5012055;28;20459;-67
2023/01/23 05:39:11;;;;;;;13.13;8.50;;;0.50;99.90;;;;;;5015028;28;20931;-66
2023/01/23 05:41:38;;;;;;;12.87;8.00;;;0.50;99.90;;;;;;5011961;28;20471;-66
2023/01/23 05:44:04;;;;;;;14.37;9.10;;;0.50;99.90;;;;;;5011641;28;20513;-67
2023/01/23 05:46:31;;;;;;;11.60;8.13;;;0.50;99.90;;;;;;5011826;28;20971;-66
2023/01/23 05:48:59;;;;;;;12.13;8.27;;;0.40;99.90;;;;;;5018798;28;20517;-66
2023/01/23 05:51:30;;;;;;;13.63;8.80;;;0.40;99.90;;;;;;5011833;28;20998;-67
2023/01/23 05:53:57;;;;;;;14.37;8.77;;;0.40;99.90;;;;;;5012277;28;20447;-67
2023/01/23 05:56:23;;;;;;;11.90;7.83;;;0.40;99.90;;;;;;5014706;28;20511;-67
2023/01/23 05:58:50;;;;;;;12.17;8.60;;;0.50;99.90;;;;;;5015155;28;20445;-67
2023/01/23 06:01:17;;;;;;;10.33;8.13;;;0.40;99.90;;;;;;5022664;28;21024;-67
2023/01/23 06:03:44;;;;;;;14.70;8.70;;;0.50;99.90;;;;;;5013294;28;20454;-67
2023/01/23 06:06:12;;;;;;;14.63;8.57;;;0.40;99.90;;;;;;5011714;28;20443;-66
2023/01/23 06:08:38;;;;;;;14.53;9.13;;;0.40;99.90;;;;;;5011645;28;20977;-66
2023/01/23 06:11:05;;;;;;;14.27;9.03;;;0.50;99.90;;;;;;5011528;28;20494;-67
2023/01/23 06:13:32;;;;;;;13.23;8.67;;;0.50;99.90;;;;;;5019566;28;20996;-66
2023/01/23 06:15:59;;;;;;;15.23;10.13;;;0.50;99.90;;;;;;5013448;28;20455;-66
2023/01/23 06:18:25;;;;;;;12.40;8.37;;;0.50;99.90;;;;;;5011534;28;20522;-67
2023/01/23 06:20:57;;;;;;;11.57;8.50;;;0.50;99.90;;;;;;5011434;28;21029;-66
2023/01/23 06:23:25;;;;;;;13.97;9.40;;;0.50;99.90;;;;;;5011366;28;20450;-66
2023/01/23 06:25:52;;;;;;;14.77;8.83;;;0.50;99.90;;;;;;5011434;28;20814;-66
2023/01/23 06:28:19;;;;;;;12.63;8.23;;;0.50;99.90;;;;;;5011384;28;20447;-67
2023/01/23 06:30:45;;;;;;;13.17;9.00;;;0.50;99.90;;;;;;5015932;28;20498;-66
2023/01/23 06:33:12;;;;;;;14.57;9.23;;;0.50;99.90;;;;;;5022824;28;20481;-66
2023/01/23 06:35:38;;;;;;;16.87;10.03;;;0.50;99.90;;;;;;5010901;28;20463;-66
2023/01/23 06:38:05;;;;;;;14.60;9.20;;;0.40;99.90;;;;;;5019266;28;20459;-66
2023/01/23 06:40:33;;;;;;;17.20;10.03;;;0.40;99.90;;;;;;5009338;28;20497;-66
2023/01/23 06:42:59;;;;;;;18.33;9.40;;;0.40;99.90;;;;;;5009351;28;20454;-66
2023/01/23 06:45:26;;;;;;;12.17;8.93;;;0.40;99.90;;;;;;5014330;28;20520;-66
2023/01/23 06:47:53;;;;;;;15.97;9.50;;;0.40;99.90;;;;;;5014661;28;20450;-66
2023/01/23 06:50:20;;;;;;;17.83;9.20;;;0.40;99.90;;;;;;5021052;28;20490;-67
2023/01/23 06:52:46;;;;;;;12.93;8.83;;;0.40;99.90;;;;;;5013331;28;21013;-67
2023/01/23 06:55:13;;;;;;;14.13;9.30;;;0.40;99.90;;;;;;5014159;28;20455;-67
2023/01/23 06:57:41;;;;;;;14.50;8.37;;;0.30;99.90;;;;;;5009857;28;20927;-67
2023/01/23 07:00:09;;;;;;;12.50;8.17;;;0.30;99.90;;;;;;5010779;28;20443;-67
2023/01/23 07:02:38;;;;;;;14.63;9.80;;;0.30;99.90;;;;;;5010090;28;20541;-69
2023/01/23 07:05:05;;;;;;;13.40;9.07;;;0.30;99.90;;;;;;5010832;28;20461;-69
2023/01/23 07:07:32;;;;;;;12.47;8.67;;;0.30;99.90;;;;;;5011459;28;20990;-69
2023/01/23 07:09:59;;;;;;;14.40;8.73;;;0.30;99.90;;;;;;5014864;28;20596;-70
2023/01/23 07:12:26;;;;;;;11.97;8.40;;;0.30;99.90;;;;;;5016519;28;20486;-69
2023/01/23 07:14:54;;;;;;;13.40;8.67;;;0.30;99.90;;;;;;5014860;28;20454;-69
2023/01/23 07:17:21;;;;;;;12.73;8.83;;;0.30;99.90;;;;;;5021163;28;20458;-69
2023/01/23 07:19:47;;;;;;;15.03;9.40;;;0.30;99.90;;;;;;5026260;28;20465;-69
2023/01/23 07:22:17;;;;;;;12.30;7.77;;;0.40;99.90;;;;;;5021054;28;20466;-70
2023/01/23 07:24:43;;;;;;;13.90;9.67;;;0.40;99.90;;;;;;5019245;28;20454;-69
2023/01/23 07:27:10;;;;;;;15.03;9.00;;;0.50;99.90;;;;;;5017631;28;20455;-69
2023/01/23 07:29:37;;;;;;;14.03;8.77;;;0.60;99.90;;;;;;5014232;28;20521;-68
2023/01/23 07:32:05;;;;;;;12.57;8.83;;;0.90;99.90;;;;;;5029854;28;20937;-69
2023/01/23 07:34:32;;;;;;;15.60;8.30;;;1.30;99.90;;;;;;5023890;28;20467;-69
2023/01/23 07:36:59;;;;;;;12.40;7.87;;;1.60;99.90;;;;;;5014579;28;20454;-69
2023/01/23 07:39:25;;;;;;;11.03;7.63;;;1.80;99.90;;;;;;5023191;28;20537;-69
2023/01/23 07:41:52;;;;;;;12.63;8.90;;;1.70;99.90;;;;;;5015093;28;20502;-68
2023/01/23 07:44:21;;;;;;;13.33;9.07;;;1.60;99.90;;;;;;5021866;28;20520;-69
2023/01/23 07:46:48;;;;;;;12.83;9.23;;;1.40;99.90;;;;;;5014669;28;20868;-69
2023/01/23 07:49:16;;;;;;;15.40;9.10;;;1.30;99.90;;;;;;5017741;28;20451;-70
2023/01/23 07:51:43;;;;;;;14.70;10.00;;;1.30;99.90;;;;;;5015072;28;20553;-70
2023/01/23 07:54:10;;;;;;;16.27;9.40;;;1.20;99.90;;;;;;5027351;28;20453;-70
2023/01/23 07:56:36;;;;;;;15.23;9.50;;;1.20;99.90;;;;;;5017729;28;20451;-69
2023/01/23 07:59:03;;;;;;;14.37;9.20;;;1.20;99.90;;;;;;5018353;28;20459;-69
2023/01/23 08:01:30;;;;;;;14.50;9.17;;;1.20;99.90;;;;;;5014355;28;20467;-70
2023/01/23 08:03:56;;;;;;;14.27;8.67;;;1.20;99.90;;;;;;5014133;28;21033;-68
2023/01/23 08:06:24;;;;;;;14.30;9.20;;;2.00;99.90;;;;;;5016295;28;20923;-68
2023/01/23 08:08:51;;;;;;;14.90;9.33;;;2.90;99.90;;;;;;5013657;28;21017;-67
2023/01/23 08:11:18;;;;;;;14.63;10.30;;;3.20;99.90;;;;;;5015874;28;20538;-67
2023/01/23 08:13:48;;;;;;;14.70;8.90;;;3.00;99.90;;;;;;5032261;28;20453;-67
2023/01/23 08:16:15;;;;;;;14.23;9.37;;;2.70;99.90;;;;;;5015178;28;20753;-67
2023/01/23 08:18:42;;;;;;;12.97;8.37;;;2.50;99.90;;;;;;5013552;28;20462;-67
2023/01/23 08:21:10;;;;;;;12.90;8.60;;;2.30;99.90;;;;;;5017878;28;20470;-67
2023/01/23 08:23:39;;;;;;;12.70;8.40;;;2.10;99.90;;;;;;5017323;28;20455;-67
2023/01/23 08:26:08;;;;;;;11.70;8.03;;;1.90;99.90;;;;;;5014153;28;20461;-67
2023/01/23 08:28:34;;;;;;;13.80;9.23;;;1.70;99.90;;;;;;5014140;28;20450;-67
2023/01/23 08:31:02;;;;;;;16.70;10.17;;;1.60;99.90;;;;;;5025061;28;20490;-68
2023/01/23 08:33:29;;;;;;;17.30;10.17;;;1.60;99.90;;;;;;5025544;28;20450;-66
2023/01/23 08:35:57;;;;;;;14.73;9.93;;;1.60;99.90;;;;;;5015884;28;20462;-66
2023/01/23 08:38:25;;;;;;;18.50;10.20;;;1.60;99.90;;;;;;5020158;28;20857;-67
2023/01/23 08:40:54;;;;;;;16.60;10.43;;;1.90;99.90;;;;;;5013775;28;20458;-66
2023/01/23 08:43:21;;;;;;;16.40;9.53;;;2.50;99.90;;;;;;5021879;28;20467;-66
2023/01/23 08:45:49;;;;;;;14.87;9.33;;;3.20;99.90;;;;;;5012983;28;20525;-66
2023/01/23 08:48:16;;;;;;;12.27;7.93;;;4.00;99.90;;;;;;5022245;28;20751;-66
2023/01/23 08:50:43;;;;;;;13.73;8.93;;;4.50;99.90;;;;;;5016165;28;20494;-66
2023/01/23 08:53:10;;;;;;;16.07;8.97;;;4.70;99.90;;;;;;5022740;28;20804;-67
2023/01/23 08:55:37;;;;;;;16.97;10.27;;;4.90;99.90;;;;;;5021605;28;20458;-67
2023/01/23 08:58:06;;;;;;;13.37;8.13;;;4.90;99.90;;;;;;5020957;28;20451;-66
2023/01/23 09:00:33;;;;;;;11.60;8.60;;;4.90;99.90;;;;;;5013174;28;20451;-67
2023/01/23 09:02:59;;;;;;;13.03;8.53;;;4.90;99.90;;;;;;5015494;28;20463;-67
2023/01/23 09:05:27;;;;;;;12.97;7.73;;;4.50;99.90;;;;;;5018357;28;20505;-66
2023/01/23 09:07:54;;;;;;;13.97;9.10;;;4.00;99.90;;;;;;5019158;28;20463;-66
2023/01/23 09:10:21;;;;;;;13.33;8.10;;;3.60;99.90;;;;;;5018936;28;20461;-67
2023/01/23 09:12:47;;;;;;;14.60;8.30;;;3.60;99.90;;;;;;5022414;28;20557;-66
2023/01/23 09:15:16;;;;;;;11.07;8.00;;;3.80;99.90;;;;;;5019915;28;20509;-67
2023/01/23 09:17:42;;;;;;;14.20;8.50;;;4.00;99.90;;;;;;5012720;28;20821;-67
2023/01/23 09:20:10;;;;;;;12.43;8.40;;;4.20;99.90;;;;;;5019605;28;20487;-67
2023/01/23 09:22:37;;;;;;;10.40;7.53;;;4.50;99.90;;;;;;5020995;28;20474;-67
2023/01/23 09:25:04;;;;;;;13.20;9.03;;;4.70;99.90;;;;;;5012726;28;20443;-67
2023/01/23 09:27:31;;;;;;;18.93;9.23;;;4.60;99.90;;;;;;5012524;28;20857;-66
2023/01/23 09:29:58;;;;;;;14.50;8.87;;;4.50;99.90;;;;;;5012534;28;20509;-67
2023/01/23 09:32:26;;;;;;;17.77;10.00;;;4.30;99.90;;;;;;5018269;28;20540;-67
2023/01/23 09:34:53;;;;;;;12.57;8.33;;;4.20;99.90;;;;;;5024135;28;20501;-67
2023/01/23 09:37:21;;;;;;;18.30;9.30;;;4.10;99.90;;;;;;5027575;28;20904;-66
2023/01/23 09:39:47;;;;;;;17.23;9.93;;;3.90;99.90;;;;;;5015048;28;20485;-67
2023/01/23 09:42:17;;;;;;;20.07;9.43;;;3.50;99.90;;;;;;5024317;28;20469;-67
2023/01/23 09:44:48;;;;;;;14.07;8.53;;;3.30;99.90;;;;;;5018440;28;20459;-67
2023/01/23 09:47:19;;;;;;;15.63;9.10;;;3.20;99.90;;;;;;5013024;28;21317;-67
2023/01/23 09:49:57;;;;;;;13.77;8.10;;;3.10;99.90;;;;;;5014905;28;20520;-67
2023/01/23 09:52:27;;;;;;;12.60;8.80;;;3.00;99.90;;;;;;5016042;28;20497;-67
2023/01/23 09:54:57;;;;;;;17.03;9.80;;;2.80;99.90;;;;;;5014094;28;20516;-67
2023/01/23 09:57:30;;;;;;;16.73;9.00;;;2.80;99.90;;;;;;5016028;28;20482;-67
2023/01/23 10:00:05;;;;;;;19.00;10.90;;;2.60;99.90;;;;;;5014435;28;20505;-67
2023/01/23 10:02:32;;;;;;;16.87;9.00;;;2.70;99.90;;;;;;5012586;28;20481;-68
2023/01/23 10:05:01;;;;;;;15.83;9.30;;;2.60;99.90;;;;;;5011945;28;20454;-67
2023/01/23 10:07:44;;;;;;;16.93;9.40;;;2.50;99.90;;;;;;5012406;28;20786;-67
2023/01/23 10:10:38;;;;;;;16.10;10.40;;;2.60;99.90;;;;;;5012069;28;20505;-67
2023/01/23 10:13:08;;;;;;;15.73;8.90;;;2.60;99.90;;;;;;5019333;28;20487;-67
2023/01/23 10:16:00;;;;;;;18.30;10.60;;;2.60;99.90;;;;;;5017435;28;20453;-68
2023/01/23 10:18:33;;;;;;;21.03;10.43;;;2.70;99.90;;;;;;5011943;28;20451;-67
2023/01/23 10:21:12;;;;;;;21.30;10.20;;;2.90;99.90;;;;;;5011763;28;20533;-68
2023/01/23 10:23:51;;;;;;;16.77;10.43;;;3.10;99.90;;;;;;5011843;28;20930;-67
2023/01/23 10:26:22;;;;;;;19.87;10.53;;;3.30;99.90;;;;;;5018990;28;20450;-67
2023/01/23 10:28:51;;;;;;;19.67;11.57;;;3.40;99.90;;;;;;5014342;28;20459;-67
2023/01/23 10:31:37;;;;;;;19.07;10.90;;;3.50;99.90;;;;;;5014275;28;20494;-67
2023/01/23 10:34:12;;;;;;;14.43;8.23;;;3.60;99.90;;;;;;5018833;28;20457;-67
2023/01/23 10:36:49;;;;;;;14.17;9.00;;;3.60;99.90;;;;;;5011874;28;20943;-66
2023/01/23 10:39:20;;;;;;;19.50;9.90;;;3.40;99.90;;;;;;5021129;28;20519;-67
2023/01/23 10:41:46;;;;;;;15.37;9.30;;;3.40;99.90;;;;;;5017641;28;20523;-66
2023/01/23 10:44:16;;;;;;;13.67;8.50;;;3.40;99.90;;;;;;5010813;28;20454;-66
2023/01/23 10:46:47;;;;;;;12.37;7.70;;;3.30;99.90;;;;;;5011609;28;20450;-66
2023/01/23 10:49:28;;;;;;;13.80;8.63;;;3.20;99.90;;;;;;5015830;28;20454;-66
2023/01/23 10:51:56;;;;;;;14.20;8.60;;;3.30;99.90;;;;;;5010984;28;20612;-66
2023/01/23 10:54:24;;;;;;;10.67;7.30;;;3.20;99.90;;;;;;5014213;28;20455;-66
2023/01/23 10:56:57;;;;;;;14.07;8.77;;;3.30;99.90;;;;;;5012611;28;20469;-66
2023/01/23 10:59:29;;;;;;;15.07;9.47;;;3.30;99.90;;;;;;5011432;28;20821;-66
2023/01/23 11:01:58;;;;;;;16.83;9.80;;;3.30;99.90;;;;;;5024851;28;20465;-66
2023/01/23 11:04:27;;;;;;;14.60;8.40;;;3.30;99.90;;;;;;5011409;28;20497;-67
2023/01/23 11:07:08;;;;;;;16.10;9.63;;;3.20;99.90;;;;;;5011379;28;20470;-67
2023/01/23 11:09:50;;;;;;;12.10;7.90;;;3.20;99.90;;;;;;5011359;28;20484;-66
2023/01/23 11:12:19;;;;;;;13.30;8.00;;;3.30;99.90;;;;;;5011607;28;20498;-66
2023/01/23 11:14:46;;;;;;;15.30;8.90;;;3.30;99.90;;;;;;5013295;28;20590;-67
2023/01/23 11:17:20;;;;;;;12.63;8.77;;;3.40;99.90;;;;;;5013760;28;20490;-67
2023/01/23 11:19:50;;;;;;;18.93;9.97;;;3.40;99.90;;;;;;5016290;28;20462;-67
2023/01/23 11:22:28;;;;;;;21.20;10.70;;;3.30;99.90;;;;;;5012836;28;20478;-67
2023/01/23 11:24:55;;;;;;;18.80;9.17;;;3.30;99.90;;;;;;5011159;28;20501;-67
2023/01/23 11:27:26;;;;;;;12.50;7.63;;;3.80;99.90;;;;;;5011595;28;20533;-66
2023/01/23 11:30:03;;;;;;;14.20;8.03;;;4.40;99.90;;;;;;5011084;28;20465;-66
2023/01/23 11:32:32;;;;;;;26.30;13.20;;;4.80;99.90;;;;;;5018074;28;20516;-67
2023/01/23 11:35:11;;;;;;;16.73;9.53;;;5.20;99.90;;;;;;5017994;28;20454;-67
2023/01/23 11:37:40;;;;;;;13.00;7.67;;;5.40;99.90;;;;;;5015162;28;20449;-67
2023/01/23 11:40:11;;;;;;;14.83;8.53;;;5.30;99.90;;;;;;5018006;28;20509;-66
2023/01/23 11:42:41;;;;;;;11.37;7.90;;;4.80;99.90;;;;;;5016282;28;20501;-66
2023/01/23 11:45:14;;;;;;;14.30;8.03;;;4.60;99.90;;;;;;5017888;28;20529;-67
2023/01/23 11:48:14;;;;;;;13.10;7.83;;;4.50;99.90;;;;;;5014741;28;20531;-67
2023/01/23 11:50:44;;;;;;;13.60;8.70;;;4.40;99.90;;;;;;5011257;28;20443;-67
2023/01/23 11:53:21;;;;;;;14.17;8.80;;;4.70;99.90;;;;;;5012196;28;20486;-67
2023/01/23 11:56:11;;;;;;;15.43;8.40;;;5.30;99.90;;;;;;5014418;28;20963;-67
2023/01/23 11:59:00;;;;;;;11.73;8.20;;;5.90;99.90;;;;;;5022668;28;20955;-66
2023/01/23 12:01:33;;;;;;;16.87;9.03;;;6.30;99.90;;;;;;5016555;28;20471;-67
2023/01/23 12:04:29;;;;;;;13.20;7.93;;;6.50;99.90;;;;;;5017823;28;20457;-67
2023/01/23 12:07:19;;;;;;;11.37;7.33;;;6.90;99.90;;;;;;5023234;28;20462;-66
2023/01/23 12:09:58;;;;;;;10.50;7.20;;;6.60;99.90;;;;;;5021410;28;20845;-66
2023/01/23 12:12:46;;;;;;;10.40;7.57;;;6.10;99.90;;;;;;5022325;28;20564;-67
2023/01/23 12:15:27;;;;;;;12.57;7.50;;;5.50;99.90;;;;;;5013245;28;20536;-67
2023/01/23 12:18:01;;;;;;;13.23;8.80;;;5.30;99.90;;;;;;5014043;28;20505;-67
2023/01/23 12:20:38;;;;;;;10.73;7.20;;;5.80;99.90;;;;;;5021196;28;20461;-69
2023/01/23 12:23:19;;;;;;;10.70;7.43;;;6.00;99.90;;;;;;5022017;28;20477;-69
2023/01/23 12:25:56;;;;;;;10.80;7.40;;;6.50;99.90;;;;;;5018673;28;20536;-69
2023/01/23 12:28:39;;;;;;;13.40;7.60;;;6.80;99.90;;;;;;5013836;28;20943;-69
2023/01/23 12:31:20;;;;;;;12.03;7.73;;;7.00;99.90;;;;;;5015182;28;20470;-69
2023/01/23 12:34:01;;;;;;;12.37;8.60;;;7.00;99.90;;;;;;5022371;28;20533;-67
2023/01/23 12:36:43;;;;;;;13.53;9.20;;;6.40;99.90;;;;;;5019835;28;20450;-69
2023/01/23 12:39:20;;;;;;;11.90;8.63;;;6.50;99.90;;;;;;5022482;28;20581;-67
2023/01/23 12:41:52;;;;;;;15.83;8.50;;;6.70;99.90;;;;;;5024927;28;20474;-67
2023/01/23 12:44:24;;;;;;;10.60;7.23;;;6.90;99.90;;;;;;5017609;28;20942;-67
2023/01/23 12:46:55;;;;;;;10.80;8.03;;;7.20;99.90;;;;;;5016746;28;20876;-68
2023/01/23 12:49:28;;;;;;;18.33;10.03;;;7.40;99.90;;;;;;5022474;28;20454;-68
2023/01/23 12:51:59;;;;;;;12.40;8.17;;;7.50;99.90;;;;;;5015903;28;20553;-68
2023/01/23 12:54:34;;;;;;;10.10;7.50;;;7.40;99.90;;;;;;5021329;28;20450;-67
2023/01/23 12:57:04;;;;;;;12.10;8.17;;;7.30;99.90;;;;;;5014902;28;20458;-67
2023/01/23 12:59:47;;;;;;;12.80;7.53;;;7.40;99.90;;;;;;5013552;28;20458;-67
2023/01/23 13:02:23;;;;;;;10.13;6.43;;;7.30;99.90;;;;;;5013309;28;20475;-68